Latest Weather Observations for Woolshed

IDQ60801

Issued at 6:06 pm EST Monday 26 January 2015 (issued every 30 minutes, with the page automatically refreshed every 10 minutes)

About weather observations | Map of weather stations | Latest weather observations for QLD | Other Formats
Station Details ID: 033307 Name: WOOLSHED Lat: -19.42 Lon: 146.54 Height: 556.04 m
Data from the previous 72 hours. | See also: Recent months at Woolshed
Date/Time
EST
Temp
°C
App
Temp
°C
Dew
Point
Rel
Hum
%
Delta-T
°C
Wind Press
QNH
hPa
Press
MSL
hPa
Rain
since 9 am
mm
Dir
 
Spd
km/h
Gust
km/h
Spd
kts
Gust
kts
26/06:00pm 27.4 31.5 23.0 77 3.1 NNE 6 9 3 5 1006.3 1002.6 0.2
26/05:30pm 29.3 34.2 23.0 69 4.4 ENE 2 6 1 3 1006.0 1002.3 0.2
26/05:00pm 32.1 34.9 20.4 50 8.0 S 6 9 3 5 1006.0 1002.3 0.2
26/04:30pm 32.2 35.5 21.4 53 7.4 S 6 13 3 7 1006.0 1002.3 0.2
26/04:00pm 32.8 35.3 20.3 47 8.5 WSW 7 19 4 10 1006.2 1002.5 0.2
26/03:30pm 32.4 35.5 21.0 51 7.8 SW 6 17 3 9 1006.7 1002.9 0.2
26/03:00pm 32.3 35.1 21.5 53 7.5 SW 9 20 5 11 1007.3 1003.6 0.2
26/02:30pm 32.2 35.4 21.7 54 7.3 WSW 7 15 4 8 1007.5 1003.8 0.2
26/02:00pm 31.4 34.1 21.3 55 6.9 WSW 9 19 5 10 1007.8 1004.1 0.2
26/01:30pm 31.4 34.3 21.8 56 6.6 SW 9 15 5 8 1008.0 1004.3 0.2
26/01:00pm 29.4 32.3 21.1 61 5.7 SSW 7 13 4 7 1008.4 1004.8 0.2
26/12:30pm 30.2 33.4 21.6 60 5.9 WSW 7 19 4 10 1008.7 1005.0 0.2
26/12:00pm 29.6 33.2 22.3 65 5.1 SW 7 15 4 8 1009.0 1005.3 0.2
26/11:30am 28.6 31.8 21.6 66 4.8 SW 7 13 4 7 1009.4 1005.7 0.2
26/11:00am 28.4 31.9 22.2 69 4.3 WSW 7 20 4 11 1009.6 1005.9 0.2
26/10:30am 27.0 30.1 21.5 72 3.7 WSW 7 15 4 8 1009.9 1006.2 0.2
26/10:00am 25.9 28.3 20.9 74 3.4 WSW 9 22 5 12 1010.0 1006.3 0.2
26/09:30am 24.5 27.3 20.8 80 2.5 WSW 7 13 4 7 1009.8 1006.1 0.0
26/09:00am 23.3 26.4 21.4 89 1.3 SW 7 15 4 8 1009.7 1006.0 35.0
26/08:30am 21.9 23.9 20.0 89 1.2 SW 9 15 5 8 1009.8 1006.1 35.0
26/08:00am 21.3 23.7 20.1 93 0.8 SW 7 13 4 7 1009.5 1005.8 35.0
26/07:30am 21.8 24.6 20.8 94 0.7 WSW 7 15 4 8 1009.5 1005.8 35.0
26/07:00am 20.4 22.7 19.9 97 0.3 WSW 7 15 4 8 1009.6 1005.9 35.0
26/06:30am 20.5 22.7 19.7 95 0.5 SW 7 15 4 8 1009.6 1005.9 35.0
26/06:00am 20.7 23.0 19.5 93 0.8 SSW 6 7 3 4 1009.1 1005.4 35.0
26/05:30am 20.4 23.7 19.9 97 0.3 SSW 2 9 1 5 1009.0 1005.3 35.0
26/05:00am 20.3 23.3 20.0 98 0.2 SSW 4 6 2 3 1009.0 1005.3 35.0
26/04:30am 20.1 22.6 19.8 98 0.2 SSW 6 11 3 6 1009.3 1005.6 35.0
26/04:00am 20.0 22.4 19.7 98 0.2 WSW 6 6 3 3 1009.3 1005.6 34.8
26/03:30am 20.0 22.4 19.7 98 0.2 SW 6 9 3 5 1009.5 1005.8 34.6
26/03:00am 20.0 21.9 19.7 98 0.2 WSW 9 15 5 8 1009.5 1005.8 34.2
26/02:30am 20.9 23.5 20.4 97 0.3 SW 7 15 4 8 1009.9 1006.2 32.4
26/02:00am 21.1 23.4 20.6 97 0.3 SW 9 24 5 13 1010.3 1006.7 31.6
26/01:30am 21.4 23.3 20.6 95 0.5 SW 11 24 6 13 1011.3 1007.6 29.8
26/01:00am 22.9 27.1 22.4 97 0.3 SW 4 9 2 5 1011.8 1008.2 28.6
26/12:30am 23.1 28.2 22.6 97 0.3 CALM 0 0 0 0 1011.7 1008.1 27.6
26/12:00am 23.0 27.5 22.3 96 0.5 NNE 2 6 1 3 1011.5 1007.8 27.6
 
Date/Time
EST
Temp
°C
App
Temp
°C
Dew
Point
Rel
Hum
%
Delta-T
°C
Wind Press
QNH
hPa
Press
MSL
hPa
Rain
since 9 am
mm
Dir
 
Spd
km/h
Gust
km/h
Spd
kts
Gust
kts
25/11:30pm 23.1 28.0 22.3 95 0.5 CALM 0 2 0 1 1011.6 1007.9 27.6
25/11:00pm 23.0 26.5 21.8 93 0.8 N 6 9 3 5 1011.9 1008.3 27.6
25/10:30pm 22.9 26.2 21.9 94 0.7 NNE 7 17 4 9 1011.9 1008.3 27.6
25/10:00pm 22.3 25.3 20.9 92 0.9 N 6 9 3 5 1011.6 1007.9 27.6
25/09:30pm 22.9 27.5 21.7 93 0.8 CALM 0 0 0 0 1011.3 1007.6 27.6
25/09:00pm 23.1 28.0 22.4 96 0.5 CALM 0 0 0 0 1011.3 1007.6 27.6
25/08:30pm 22.9 27.7 22.1 95 0.5 CALM 0 4 0 2 1010.8 1007.1 27.6
25/08:00pm 22.5 27.1 21.8 96 0.5 CALM 0 0 0 0 1009.6 1005.9 27.6
25/07:30pm 22.8 27.2 22.1 96 0.5 S 2 4 1 2 1009.1 1005.4 27.6
25/07:00pm 22.9 27.7 22.2 96 0.5 CALM 0 0 0 0 1009.0 1005.3 27.6
25/06:30pm 22.8 27.6 22.1 96 0.5 CALM 0 0 0 0 1009.3 1005.6 27.6
25/06:00pm 22.4 26.7 21.9 97 0.3 SSW 2 4 1 2 1009.4 1005.7 27.6
25/05:30pm 22.0 25.1 21.0 94 0.7 SW 6 9 3 5 1009.7 1006.0 26.8
25/05:00pm 22.0 25.0 21.3 96 0.5 SW 7 15 4 8 1009.1 1005.4 26.2
25/04:30pm 21.5 23.5 20.7 95 0.5 S 11 19 6 10 1009.3 1005.6 26.0
25/04:00pm 24.4 26.6 20.3 78 2.7 SSW 9 19 5 10 1009.6 1005.9 0.2
25/03:30pm 28.5 32.7 24.1 77 3.1 ENE 9 17 5 9 1008.3 1004.6 0.2
25/03:00pm 28.8 33.3 24.6 78 3.0 NNE 9 17 5 9 1008.2 1004.5 0.2
25/02:30pm 28.9 33.0 24.0 75 3.5 NNE 9 17 5 9 1008.6 1004.9 0.2
25/02:00pm 30.2 34.4 24.1 70 4.3 N 9 17 5 9 1009.1 1005.4 0.2
25/01:30pm 30.3 35.2 24.7 72 4.0 N 7 11 4 6 1009.4 1005.7 0.2
25/01:00pm 30.4 34.2 22.8 64 5.3 NNW 7 13 4 7 1010.0 1006.3 0.2
25/12:30pm 30.1 34.2 23.0 65 5.0 WNW 6 13 3 7 1010.5 1006.8 0.2
25/12:00pm 29.9 33.6 22.3 63 5.3 W 6 9 3 5 1010.7 1007.0 0.2
25/11:30am 29.9 34.4 22.9 66 4.9 WNW 4 9 2 5 1011.0 1007.3 0.2
25/11:00am 29.6 32.5 21.8 63 5.4 WNW 9 17 5 9 1011.4 1007.7 0.2
25/10:30am 29.7 32.8 22.2 64 5.2 WNW 9 15 5 8 1011.5 1007.8 0.2
25/10:00am 29.1 31.6 21.8 64 5.0 WNW 11 22 6 12 1011.8 1008.2 0.2
25/09:30am 28.5 31.4 22.5 70 4.1 WNW 11 20 6 11 1011.9 1008.3 0.0
25/09:00am 27.4 30.1 22.1 73 3.6 W 11 24 6 13 1011.8 1008.2 5.4
25/08:30am 25.9 28.7 21.6 77 2.9 WSW 9 17 5 9 1011.8 1008.2 5.4
25/08:00am 24.9 28.2 21.8 83 2.1 WSW 7 13 4 7 1011.8 1008.2 5.4
25/07:30am 24.3 28.3 22.0 87 1.6 WSW 4 7 2 4 1011.7 1008.1 5.4
25/07:00am 23.3 27.6 21.9 92 0.9 SW 2 2 1 1 1011.6 1007.9 5.4
25/06:30am 22.5 27.1 21.8 96 0.5 CALM 0 0 0 0 1011.2 1007.5 5.4
25/06:00am 22.3 26.8 21.5 95 0.5 CALM 0 0 0 0 1010.9 1007.2 5.4
25/05:30am 22.2 26.5 21.2 94 0.7 CALM 0 0 0 0 1010.6 1006.9 5.4
25/05:00am 22.4 26.7 21.2 93 0.8 CALM 0 2 0 1 1010.6 1006.9 5.4
25/04:30am 22.4 26.2 21.0 92 0.9 N 2 6 1 3 1010.5 1006.8 5.4
25/04:00am 22.5 26.4 21.1 92 0.9 NNE 2 6 1 3 1010.5 1006.8 5.4
25/03:30am 22.2 25.8 21.2 94 0.7 NNE 4 6 2 3 1010.3 1006.7 5.4
25/03:00am 22.5 25.7 21.3 93 0.8 NNE 6 9 3 5 1010.3 1006.7 5.4
25/02:30am 22.8 26.6 21.6 93 0.8 NNE 4 7 2 4 1010.5 1006.8 5.4
25/02:00am 23.2 26.2 20.9 87 1.5 NNW 6 9 3 5 1010.3 1006.7 5.4
25/01:30am 22.7 27.2 21.5 93 0.8 CALM 0 2 0 1 1010.1 1006.5 5.4
25/01:00am 22.7 27.2 21.5 93 0.8 CALM 0 0 0 0 1010.5 1006.8 5.4
25/12:30am 22.7 27.0 22.0 96 0.5 WNW 2 4 1 2 1011.0 1007.3 5.4
25/12:00am 22.8 27.5 22.0 95 0.5 CALM 0 0 0 0 1011.3 1007.6 5.4
 
Date/Time
EST
Temp
°C
App
Temp
°C
Dew
Point
Rel
Hum
%
Delta-T
°C
Wind Press
QNH
hPa
Press
MSL
hPa
Rain
since 9 am
mm
Dir
 
Spd
km/h
Gust
km/h
Spd
kts
Gust
kts
24/11:30pm 22.7 26.6 21.9 95 0.5 NE 4 6 2 3 1011.8 1008.2 5.4
24/11:00pm 22.8 27.5 22.0 95 0.5 CALM 0 0 0 0 1012.1 1008.5 5.4
24/10:30pm 22.9 27.5 21.7 93 0.8 CALM 0 0 0 0 1012.0 1008.4 5.4
24/10:00pm 22.9 27.1 21.7 93 0.8 NNE 2 7 1 4 1011.8 1008.2 5.4
24/09:30pm 23.0 26.7 22.2 95 0.5 NNE 6 11 3 6 1011.4 1007.7 5.4
24/09:00pm 23.3 27.0 22.6 96 0.5 NNE 7 11 4 6 1011.0 1007.3 5.4
24/08:30pm 23.8 27.9 23.3 97 0.3 NNE 7 13 4 7 1010.9 1007.2 5.2
24/08:00pm 23.9 28.1 23.4 97 0.3 NNE 7 20 4 11 1010.3 1006.7 5.2
24/07:30pm 23.8 27.3 22.8 94 0.7 NNE 9 19 5 10 1010.1 1006.5 5.2
24/07:00pm 23.8 27.4 23.1 96 0.5 NNE 9 19 5 10 1010.2 1006.6 5.2
24/06:30pm 23.8 27.0 23.0 95 0.6 NNE 11 19 6 10 1009.8 1006.1 5.2
24/06:00pm 24.0 27.6 23.0 94 0.7 NNE 9 17 5 9 1009.1 1005.4 5.2
24/05:30pm 24.5 28.6 23.3 93 0.8 NNE 7 13 4 7 1008.8 1005.1 5.0
24/05:00pm 24.8 28.6 23.4 92 1.0 NNE 9 17 5 9 1008.4 1004.8 5.0
24/04:30pm 25.1 28.6 22.8 87 1.6 NNE 9 22 5 12 1007.8 1004.1 5.0
24/04:00pm 25.4 29.4 23.1 87 1.6 NNE 7 17 4 9 1007.7 1004.0 5.0
24/03:30pm 25.4 29.1 22.3 83 2.1 NNE 6 11 3 6 1007.7 1004.0 5.0
24/03:00pm 25.3 28.3 21.2 78 2.8 NNE 7 11 4 6 1008.2 1004.5 5.0
24/02:30pm 24.3 26.9 20.4 79 2.6 N 7 13 4 7 1008.4 1004.8 4.6
24/02:00pm 26.0 28.9 21.7 77 2.9 N 9 19 5 10 1008.6 1004.9 4.4
24/01:30pm 23.3 25.6 21.4 89 1.3 ENE 11 22 6 12 1009.0 1005.3 4.4
24/01:14pm 23.1 22.6 18.6 76 2.9 N 19 37 10 20 1009.3 1005.6 2.0
24/01:00pm 28.1 31.3 22.3 70 4.0 N 9 26 5 14 1009.0 1005.3 0.0
24/12:30pm 30.1 35.1 23.8 69 4.4 NNE 4 7 2 4 1009.1 1005.4 0.0
24/12:00pm 29.3 33.8 23.0 69 4.4 ENE 4 7 2 4 1009.6 1005.9 0.0
24/11:30am 31.1 35.7 23.2 63 5.5 WNW 4 7 2 4 1009.8 1006.1 0.0
24/11:00am 29.9 34.4 22.9 66 4.9 NNW 4 9 2 5 1010.0 1006.3 0.0
24/10:30am 30.0 33.5 22.2 63 5.4 W 7 13 4 7 1010.3 1006.7 0.0
24/10:00am 29.1 32.8 22.6 68 4.5 WNW 7 15 4 8 1010.5 1006.8 0.0
24/09:30am 28.9 32.7 22.4 68 4.5 W 6 13 3 7 1010.2 1006.6 0.0
24/09:00am 28.5 32.2 22.5 70 4.2 W 7 17 4 9 1010.5 1006.8 0.0
24/08:30am 27.7 30.9 22.4 73 3.7 W 9 15 5 8 1010.3 1006.7 0.0
24/08:00am 26.3 31.2 23.6 85 1.9 W 4 9 2 5 1010.2 1006.6 0.0
24/07:30am 25.0 29.2 23.2 90 1.2 WSW 6 9 3 5 1009.9 1006.2 0.0
24/07:00am 24.2 30.0 23.9 98 0.2 CALM 0 0 0 0 1009.9 1006.2 0.0
24/06:30am 23.3 28.6 23.0 98 0.2 CALM 0 0 0 0 1009.5 1005.8 0.0
24/06:00am 23.2 28.4 22.9 98 0.2 CALM 0 2 0 1 1009.0 1005.3 0.0
24/05:30am 23.4 28.7 23.1 98 0.2 CALM 0 0 0 0 1008.8 1005.1 0.0
24/05:00am 23.6 29.0 23.3 98 0.2 CALM 0 2 0 1 1008.6 1004.9 0.0
24/04:30am 23.6 29.0 23.3 98 0.2 CALM 0 4 0 2 1008.2 1004.5 0.0
24/04:00am 23.6 28.3 23.3 98 0.2 NNE 4 9 2 5 1007.7 1004.0 0.0
24/03:30am 23.8 28.2 23.5 98 0.2 NNE 6 9 3 5 1007.7 1004.0 0.0
24/03:00am 24.1 28.6 23.9 99 0.1 NNE 7 15 4 8 1007.9 1004.2 0.0
24/02:30am 24.0 28.3 23.7 98 0.2 NNE 7 13 4 7 1007.9 1004.2 0.0
24/02:00am 24.1 28.2 23.9 99 0.1 NNE 9 17 5 9 1007.9 1004.2 0.0
24/01:30am 24.1 27.7 23.8 98 0.2 N 11 24 6 13 1008.0 1004.3 0.0
24/01:00am 24.1 27.4 23.8 98 0.2 NNE 13 28 7 15 1008.4 1004.8 0.0
24/12:30am 24.3 27.7 24.0 98 0.2 NNE 13 24 7 13 1008.4 1004.8 0.0
24/12:00am 24.3 28.1 24.0 98 0.2 N 11 28 6 15 1008.8 1005.1 0.0
 
Date/Time
EST
Temp
°C
App
Temp
°C
Dew
Point
Rel
Hum
%
Delta-T
°C
Wind Press
QNH
hPa
Press
MSL
hPa
Rain
since 9 am
mm
Dir
 
Spd
km/h
Gust
km/h
Spd
kts
Gust
kts
23/11:30pm 24.2 28.3 23.9 98 0.2 NNE 9 17 5 9 1009.0 1005.3 0.0
23/11:00pm 24.2 27.8 23.7 97 0.3 NNE 11 19 6 10 1009.1 1005.4 0.0
23/10:30pm 24.2 27.8 23.7 97 0.3 NNE 11 22 6 12 1009.1 1005.4 0.0
23/10:00pm 24.3 28.3 23.8 97 0.3 NNE 9 17 5 9 1009.1 1005.4 0.0
23/09:30pm 24.2 28.0 23.5 96 0.5 NNE 9 17 5 9 1008.9 1005.2 0.0
23/09:00pm 24.1 27.9 23.4 96 0.5 NNE 9 15 5 8 1008.6 1004.9 0.0
23/08:30pm 24.1 28.3 23.4 96 0.5 NNE 7 15 4 8 1008.3 1004.6 0.0
23/08:00pm 24.2 28.0 23.5 96 0.5 NNE 9 19 5 10 1008.1 1004.4 0.0
23/07:30pm 24.4 28.2 23.5 95 0.6 NNE 9 17 5 9 1007.7 1004.0 0.0
23/07:00pm 24.5 28.9 23.5 94 0.7 NNE 6 13 3 7 1007.2 1003.5 0.0
23/06:30pm 24.8 28.9 23.2 91 1.1 NNE 7 13 4 7 1006.8 1003.0 0.0

Other Formats:

Comma delimited format used in spreadsheet applications
http://www.bom.gov.au/fwo/IDQ60801/IDQ60801.95293.axf

JavaScript Object Notation format (JSON) in row-major order
http://www.bom.gov.au/fwo/IDQ60801/IDQ60801.95293.json